sensor_id;sensor_type;location;lat;lon;timestamp;P1;durP1;ratioP1;P2;durP2;ratioP2
45684;SDS011;46836;48.388;16.210;2022-12-29T00:00:08;9.05;;;7.15;;
45684;SDS011;46836;48.388;16.210;2022-12-29T00:02:36;15.15;;;9.88;;
45684;SDS011;46836;48.388;16.210;2022-12-29T00:05:03;18.77;;;8.32;;
45684;SDS011;46836;48.388;16.210;2022-12-29T00:07:31;13.80;;;8.25;;
45684;SDS011;46836;48.388;16.210;2022-12-29T00:09:58;12.75;;;8.15;;
45684;SDS011;46836;48.388;16.210;2022-12-29T00:12:25;14.85;;;9.27;;
45684;SDS011;46836;48.388;16.210;2022-12-29T00:15:12;18.00;;;10.85;;
45684;SDS011;46836;48.388;16.210;2022-12-29T00:17:58;12.60;;;8.88;;
45684;SDS011;46836;48.388;16.210;2022-12-29T00:20:24;14.70;;;8.15;;
45684;SDS011;46836;48.388;16.210;2022-12-29T00:23:10;12.38;;;8.48;;
45684;SDS011;46836;48.388;16.210;2022-12-29T00:25:56;13.98;;;9.25;;
45684;SDS011;46836;48.388;16.210;2022-12-29T00:28:43;13.07;;;9.25;;
45684;SDS011;46836;48.388;16.210;2022-12-29T00:31:28;9.93;;;7.55;;
45684;SDS011;46836;48.388;16.210;2022-12-29T00:34:14;15.20;;;9.60;;
45684;SDS011;46836;48.388;16.210;2022-12-29T00:37:00;13.23;;;9.18;;
45684;SDS011;46836;48.388;16.210;2022-12-29T00:39:27;18.55;;;10.55;;
45684;SDS011;46836;48.388;16.210;2022-12-29T00:42:13;17.15;;;9.77;;
45684;SDS011;46836;48.388;16.210;2022-12-29T00:44:58;12.55;;;9.02;;
45684;SDS011;46836;48.388;16.210;2022-12-29T00:47:25;17.58;;;10.90;;
45684;SDS011;46836;48.388;16.210;2022-12-29T00:49:53;14.68;;;10.30;;
45684;SDS011;46836;48.388;16.210;2022-12-29T00:52:20;17.77;;;10.68;;
45684;SDS011;46836;48.388;16.210;2022-12-29T00:54:47;13.15;;;8.77;;
45684;SDS011;46836;48.388;16.210;2022-12-29T00:57:14;12.70;;;7.80;;
45684;SDS011;46836;48.388;16.210;2022-12-29T00:59:43;13.88;;;9.02;;
45684;SDS011;46836;48.388;16.210;2022-12-29T01:02:11;13.38;;;8.80;;
45684;SDS011;46836;48.388;16.210;2022-12-29T01:04:38;11.93;;;8.23;;
45684;SDS011;46836;48.388;16.210;2022-12-29T01:07:05;16.65;;;9.25;;
45684;SDS011;46836;48.388;16.210;2022-12-29T01:09:32;13.05;;;8.05;;
45684;SDS011;46836;48.388;16.210;2022-12-29T01:12:18;14.88;;;8.90;;
45684;SDS011;46836;48.388;16.210;2022-12-29T01:15:06;12.25;;;7.40;;
45684;SDS011;46836;48.388;16.210;2022-12-29T01:17:35;11.57;;;7.22;;
45684;SDS011;46836;48.388;16.210;2022-12-29T01:20:02;12.25;;;7.60;;
45684;SDS011;46836;48.388;16.210;2022-12-29T01:22:30;11.23;;;8.13;;
45684;SDS011;46836;48.388;16.210;2022-12-29T01:24:57;13.25;;;8.52;;
45684;SDS011;46836;48.388;16.210;2022-12-29T01:27:24;12.05;;;8.10;;
45684;SDS011;46836;48.388;16.210;2022-12-29T01:29:52;11.60;;;7.53;;
45684;SDS011;46836;48.388;16.210;2022-12-29T01:32:19;11.30;;;7.30;;
45684;SDS011;46836;48.388;16.210;2022-12-29T01:34:46;10.98;;;7.45;;
45684;SDS011;46836;48.388;16.210;2022-12-29T01:37:13;13.55;;;7.90;;
45684;SDS011;46836;48.388;16.210;2022-12-29T01:39:40;16.77;;;8.77;;
45684;SDS011;46836;48.388;16.210;2022-12-29T01:42:12;15.15;;;8.00;;
45684;SDS011;46836;48.388;16.210;2022-12-29T01:47:29;10.75;;;7.55;;
45684;SDS011;46836;48.388;16.210;2022-12-29T01:50:00;15.93;;;7.57;;
45684;SDS011;46836;48.388;16.210;2022-12-29T01:52:36;12.10;;;7.53;;
45684;SDS011;46836;48.388;16.210;2022-12-29T01:55:08;12.35;;;7.70;;
45684;SDS011;46836;48.388;16.210;2022-12-29T01:57:37;12.75;;;7.30;;
45684;SDS011;46836;48.388;16.210;2022-12-29T02:00:08;11.25;;;6.90;;
45684;SDS011;46836;48.388;16.210;2022-12-29T02:02:37;10.80;;;7.68;;
45684;SDS011;46836;48.388;16.210;2022-12-29T02:08:00;9.93;;;7.20;;
45684;SDS011;46836;48.388;16.210;2022-12-29T02:10:30;13.20;;;7.65;;
45684;SDS011;46836;48.388;16.210;2022-12-29T02:12:59;13.13;;;7.35;;
45684;SDS011;46836;48.388;16.210;2022-12-29T02:15:34;14.40;;;7.70;;
45684;SDS011;46836;48.388;16.210;2022-12-29T02:18:05;16.27;;;7.55;;
45684;SDS011;46836;48.388;16.210;2022-12-29T02:23:33;10.65;;;7.18;;
45684;SDS011;46836;48.388;16.210;2022-12-29T02:32:08;12.27;;;7.13;;
45684;SDS011;46836;48.388;16.210;2022-12-29T02:37:19;12.10;;;7.78;;
45684;SDS011;46836;48.388;16.210;2022-12-29T02:39:56;10.38;;;7.40;;
45684;SDS011;46836;48.388;16.210;2022-12-29T02:45:27;10.45;;;7.35;;
45684;SDS011;46836;48.388;16.210;2022-12-29T02:48:17;13.85;;;8.00;;
45684;SDS011;46836;48.388;16.210;2022-12-29T02:51:03;11.15;;;6.88;;
45684;SDS011;46836;48.388;16.210;2022-12-29T02:53:55;10.95;;;7.70;;
45684;SDS011;46836;48.388;16.210;2022-12-29T02:56:42;12.18;;;7.85;;
45684;SDS011;46836;48.388;16.210;2022-12-29T02:59:09;10.90;;;6.50;;
45684;SDS011;46836;48.388;16.210;2022-12-29T03:07:32;10.15;;;8.00;;
45684;SDS011;46836;48.388;16.210;2022-12-29T03:11:00;11.75;;;7.60;;
45684;SDS011;46836;48.388;16.210;2022-12-29T03:19:46;11.35;;;7.55;;
45684;SDS011;46836;48.388;16.210;2022-12-29T03:22:19;11.65;;;7.35;;
45684;SDS011;46836;48.388;16.210;2022-12-29T03:24:58;10.70;;;7.32;;
45684;SDS011;46836;48.388;16.210;2022-12-29T03:27:38;11.00;;;6.78;;
45684;SDS011;46836;48.388;16.210;2022-12-29T03:30:15;12.02;;;6.85;;
45684;SDS011;46836;48.388;16.210;2022-12-29T03:32:45;7.55;;;6.40;;
45684;SDS011;46836;48.388;16.210;2022-12-29T03:35:17;10.02;;;6.78;;
45684;SDS011;46836;48.388;16.210;2022-12-29T03:40:51;14.27;;;7.25;;
45684;SDS011;46836;48.388;16.210;2022-12-29T03:43:22;10.45;;;7.13;;
45684;SDS011;46836;48.388;16.210;2022-12-29T03:45:51;10.95;;;6.43;;
45684;SDS011;46836;48.388;16.210;2022-12-29T03:48:18;11.32;;;7.72;;
45684;SDS011;46836;48.388;16.210;2022-12-29T03:50:45;15.50;;;8.55;;
45684;SDS011;46836;48.388;16.210;2022-12-29T03:53:12;11.57;;;7.50;;
45684;SDS011;46836;48.388;16.210;2022-12-29T03:55:39;11.27;;;7.80;;
45684;SDS011;46836;48.388;16.210;2022-12-29T03:58:06;10.27;;;7.38;;
45684;SDS011;46836;48.388;16.210;2022-12-29T04:00:34;13.75;;;7.90;;
45684;SDS011;46836;48.388;16.210;2022-12-29T04:03:01;10.02;;;7.00;;
45684;SDS011;46836;48.388;16.210;2022-12-29T04:05:28;10.25;;;6.60;;
45684;SDS011;46836;48.388;16.210;2022-12-29T04:07:55;10.73;;;7.30;;
45684;SDS011;46836;48.388;16.210;2022-12-29T04:10:22;13.82;;;7.93;;
45684;SDS011;46836;48.388;16.210;2022-12-29T04:12:49;9.32;;;6.68;;
45684;SDS011;46836;48.388;16.210;2022-12-29T04:15:16;10.07;;;6.65;;
45684;SDS011;46836;48.388;16.210;2022-12-29T04:17:43;14.20;;;8.10;;
45684;SDS011;46836;48.388;16.210;2022-12-29T04:20:11;11.13;;;7.25;;
45684;SDS011;46836;48.388;16.210;2022-12-29T04:22:59;11.05;;;7.00;;
45684;SDS011;46836;48.388;16.210;2022-12-29T04:25:28;10.23;;;7.40;;
45684;SDS011;46836;48.388;16.210;2022-12-29T04:27:57;10.65;;;7.50;;
45684;SDS011;46836;48.388;16.210;2022-12-29T04:30:24;9.02;;;6.47;;
45684;SDS011;46836;48.388;16.210;2022-12-29T04:32:51;9.50;;;6.43;;
45684;SDS011;46836;48.388;16.210;2022-12-29T04:35:18;10.18;;;6.97;;
45684;SDS011;46836;48.388;16.210;2022-12-29T04:37:46;8.73;;;7.25;;
45684;SDS011;46836;48.388;16.210;2022-12-29T04:40:13;9.93;;;7.18;;
45684;SDS011;46836;48.388;16.210;2022-12-29T04:42:40;12.48;;;8.00;;
45684;SDS011;46836;48.388;16.210;2022-12-29T04:45:07;9.93;;;7.80;;
45684;SDS011;46836;48.388;16.210;2022-12-29T04:47:34;10.27;;;7.28;;
45684;SDS011;46836;48.388;16.210;2022-12-29T04:50:01;13.55;;;8.77;;
45684;SDS011;46836;48.388;16.210;2022-12-29T04:52:29;16.67;;;8.02;;
45684;SDS011;46836;48.388;16.210;2022-12-29T04:54:56;10.55;;;6.93;;
45684;SDS011;46836;48.388;16.210;2022-12-29T04:57:23;11.95;;;7.43;;
45684;SDS011;46836;48.388;16.210;2022-12-29T04:59:50;12.13;;;7.95;;
45684;SDS011;46836;48.388;16.210;2022-12-29T05:02:17;15.20;;;8.35;;
45684;SDS011;46836;48.388;16.210;2022-12-29T05:04:44;11.70;;;8.43;;
45684;SDS011;46836;48.388;16.210;2022-12-29T05:07:12;11.57;;;7.20;;
45684;SDS011;46836;48.388;16.210;2022-12-29T05:09:39;14.73;;;7.90;;
45684;SDS011;46836;48.388;16.210;2022-12-29T05:12:06;11.13;;;7.68;;
45684;SDS011;46836;48.388;16.210;2022-12-29T05:14:33;14.05;;;8.07;;
45684;SDS011;46836;48.388;16.210;2022-12-29T05:17:00;12.70;;;8.00;;
45684;SDS011;46836;48.388;16.210;2022-12-29T05:19:27;11.45;;;8.95;;
45684;SDS011;46836;48.388;16.210;2022-12-29T05:21:55;11.10;;;8.50;;
45684;SDS011;46836;48.388;16.210;2022-12-29T05:24:22;13.13;;;8.00;;
45684;SDS011;46836;48.388;16.210;2022-12-29T05:26:49;8.93;;;7.20;;
45684;SDS011;46836;48.388;16.210;2022-12-29T05:29:16;10.05;;;7.45;;
45684;SDS011;46836;48.388;16.210;2022-12-29T05:31:43;14.63;;;8.52;;
45684;SDS011;46836;48.388;16.210;2022-12-29T05:34:11;12.68;;;8.02;;
45684;SDS011;46836;48.388;16.210;2022-12-29T05:36:39;11.98;;;6.80;;
45684;SDS011;46836;48.388;16.210;2022-12-29T05:39:06;10.45;;;8.05;;
45684;SDS011;46836;48.388;16.210;2022-12-29T05:41:36;13.07;;;8.10;;
45684;SDS011;46836;48.388;16.210;2022-12-29T05:44:03;16.83;;;8.00;;
45684;SDS011;46836;48.388;16.210;2022-12-29T05:46:30;11.63;;;7.75;;
45684;SDS011;46836;48.388;16.210;2022-12-29T05:48:58;13.70;;;8.38;;
45684;SDS011;46836;48.388;16.210;2022-12-29T05:51:25;16.80;;;7.63;;
45684;SDS011;46836;48.388;16.210;2022-12-29T05:53:52;11.77;;;8.05;;
45684;SDS011;46836;48.388;16.210;2022-12-29T05:56:19;15.88;;;8.43;;
45684;SDS011;46836;48.388;16.210;2022-12-29T05:58:47;17.50;;;9.35;;
45684;SDS011;46836;48.388;16.210;2022-12-29T06:01:14;15.95;;;9.07;;
45684;SDS011;46836;48.388;16.210;2022-12-29T06:03:42;16.45;;;9.35;;
45684;SDS011;46836;48.388;16.210;2022-12-29T06:06:13;15.05;;;9.50;;
45684;SDS011;46836;48.388;16.210;2022-12-29T06:08:41;16.45;;;9.73;;
45684;SDS011;46836;48.388;16.210;2022-12-29T06:11:08;17.15;;;9.30;;
45684;SDS011;46836;48.388;16.210;2022-12-29T06:13:35;17.95;;;10.75;;
45684;SDS011;46836;48.388;16.210;2022-12-29T06:16:02;23.33;;;12.32;;
45684;SDS011;46836;48.388;16.210;2022-12-29T06:18:30;20.25;;;10.65;;
45684;SDS011;46836;48.388;16.210;2022-12-29T06:21:00;22.60;;;12.32;;
45684;SDS011;46836;48.388;16.210;2022-12-29T06:23:28;16.92;;;10.95;;
45684;SDS011;46836;48.388;16.210;2022-12-29T06:25:55;23.95;;;11.90;;
45684;SDS011;46836;48.388;16.210;2022-12-29T06:28:23;21.90;;;13.05;;
45684;SDS011;46836;48.388;16.210;2022-12-29T06:30:51;26.27;;;12.50;;
45684;SDS011;46836;48.388;16.210;2022-12-29T06:33:18;22.77;;;12.48;;
45684;SDS011;46836;48.388;16.210;2022-12-29T06:35:45;19.85;;;11.68;;
45684;SDS011;46836;48.388;16.210;2022-12-29T06:38:12;19.90;;;11.30;;
45684;SDS011;46836;48.388;16.210;2022-12-29T06:40:39;20.08;;;12.05;;
45684;SDS011;46836;48.388;16.210;2022-12-29T06:43:08;20.23;;;11.40;;
45684;SDS011;46836;48.388;16.210;2022-12-29T06:45:37;18.83;;;11.13;;
45684;SDS011;46836;48.388;16.210;2022-12-29T06:48:06;18.33;;;11.32;;
45684;SDS011;46836;48.388;16.210;2022-12-29T06:50:34;20.05;;;11.98;;
45684;SDS011;46836;48.388;16.210;2022-12-29T06:53:01;24.35;;;12.88;;
45684;SDS011;46836;48.388;16.210;2022-12-29T06:55:28;18.10;;;12.50;;
45684;SDS011;46836;48.388;16.210;2022-12-29T06:57:56;16.58;;;11.02;;
45684;SDS011;46836;48.388;16.210;2022-12-29T07:00:24;16.35;;;11.35;;
45684;SDS011;46836;48.388;16.210;2022-12-29T07:02:52;23.10;;;11.90;;
45684;SDS011;46836;48.388;16.210;2022-12-29T07:05:23;19.40;;;11.07;;
45684;SDS011;46836;48.388;16.210;2022-12-29T07:07:54;16.35;;;10.65;;
45684;SDS011;46836;48.388;16.210;2022-12-29T07:10:21;15.85;;;11.40;;
45684;SDS011;46836;48.388;16.210;2022-12-29T07:12:49;16.85;;;10.38;;
45684;SDS011;46836;48.388;16.210;2022-12-29T07:15:16;18.17;;;11.13;;
45684;SDS011;46836;48.388;16.210;2022-12-29T07:17:43;24.27;;;11.68;;
45684;SDS011;46836;48.388;16.210;2022-12-29T07:20:10;18.45;;;10.45;;
45684;SDS011;46836;48.388;16.210;2022-12-29T07:22:37;19.45;;;10.30;;
45684;SDS011;46836;48.388;16.210;2022-12-29T07:25:05;15.05;;;10.38;;
45684;SDS011;46836;48.388;16.210;2022-12-29T07:27:32;17.17;;;11.23;;
45684;SDS011;46836;48.388;16.210;2022-12-29T07:29:59;18.48;;;11.48;;
45684;SDS011;46836;48.388;16.210;2022-12-29T07:32:26;18.40;;;11.43;;
45684;SDS011;46836;48.388;16.210;2022-12-29T07:34:53;19.58;;;11.23;;
45684;SDS011;46836;48.388;16.210;2022-12-29T07:37:20;21.92;;;11.10;;
45684;SDS011;46836;48.388;16.210;2022-12-29T07:39:47;21.30;;;12.13;;
45684;SDS011;46836;48.388;16.210;2022-12-29T07:42:14;22.58;;;13.00;;
45684;SDS011;46836;48.388;16.210;2022-12-29T07:44:42;22.35;;;13.30;;
45684;SDS011;46836;48.388;16.210;2022-12-29T07:47:09;21.67;;;13.45;;
45684;SDS011;46836;48.388;16.210;2022-12-29T07:49:37;23.38;;;12.70;;
45684;SDS011;46836;48.388;16.210;2022-12-29T07:52:04;21.20;;;13.35;;
45684;SDS011;46836;48.388;16.210;2022-12-29T07:54:31;24.27;;;13.85;;
45684;SDS011;46836;48.388;16.210;2022-12-29T07:56:58;21.33;;;13.57;;
45684;SDS011;46836;48.388;16.210;2022-12-29T07:59:26;14.73;;;10.70;;
45684;SDS011;46836;48.388;16.210;2022-12-29T08:01:53;21.38;;;11.60;;
45684;SDS011;46836;48.388;16.210;2022-12-29T08:04:20;26.33;;;13.40;;
45684;SDS011;46836;48.388;16.210;2022-12-29T08:06:49;19.42;;;11.00;;
45684;SDS011;46836;48.388;16.210;2022-12-29T08:09:16;21.30;;;11.80;;
45684;SDS011;46836;48.388;16.210;2022-12-29T08:11:49;22.88;;;11.32;;
45684;SDS011;46836;48.388;16.210;2022-12-29T08:14:16;21.10;;;10.75;;
45684;SDS011;46836;48.388;16.210;2022-12-29T08:16:43;21.73;;;11.82;;
45684;SDS011;46836;48.388;16.210;2022-12-29T08:19:11;21.27;;;11.10;;
45684;SDS011;46836;48.388;16.210;2022-12-29T08:21:38;26.50;;;13.10;;
45684;SDS011;46836;48.388;16.210;2022-12-29T08:24:06;19.35;;;12.93;;
45684;SDS011;46836;48.388;16.210;2022-12-29T08:26:34;20.08;;;11.93;;
45684;SDS011;46836;48.388;16.210;2022-12-29T08:29:01;19.13;;;11.32;;
45684;SDS011;46836;48.388;16.210;2022-12-29T08:31:28;22.10;;;13.65;;
45684;SDS011;46836;48.388;16.210;2022-12-29T08:33:56;22.60;;;12.45;;
45684;SDS011;46836;48.388;16.210;2022-12-29T08:36:23;23.13;;;12.52;;
45684;SDS011;46836;48.388;16.210;2022-12-29T08:38:50;20.70;;;12.82;;
45684;SDS011;46836;48.388;16.210;2022-12-29T08:41:17;20.75;;;12.13;;
45684;SDS011;46836;48.388;16.210;2022-12-29T08:43:47;24.15;;;12.38;;
45684;SDS011;46836;48.388;16.210;2022-12-29T08:46:15;21.38;;;11.70;;
45684;SDS011;46836;48.388;16.210;2022-12-29T08:48:43;23.88;;;13.38;;
45684;SDS011;46836;48.388;16.210;2022-12-29T08:51:10;24.02;;;13.50;;
45684;SDS011;46836;48.388;16.210;2022-12-29T08:53:37;27.20;;;13.85;;
45684;SDS011;46836;48.388;16.210;2022-12-29T08:56:05;22.23;;;11.98;;
45684;SDS011;46836;48.388;16.210;2022-12-29T08:58:33;24.17;;;14.30;;
45684;SDS011;46836;48.388;16.210;2022-12-29T09:01:00;28.27;;;13.43;;
45684;SDS011;46836;48.388;16.210;2022-12-29T09:03:27;23.58;;;13.20;;
45684;SDS011;46836;48.388;16.210;2022-12-29T09:06:15;27.98;;;14.70;;
45684;SDS011;46836;48.388;16.210;2022-12-29T09:08:44;28.92;;;14.82;;
45684;SDS011;46836;48.388;16.210;2022-12-29T09:11:16;20.65;;;13.10;;
45684;SDS011;46836;48.388;16.210;2022-12-29T09:13:45;27.35;;;13.55;;
45684;SDS011;46836;48.388;16.210;2022-12-29T09:16:13;26.27;;;12.85;;
45684;SDS011;46836;48.388;16.210;2022-12-29T09:18:41;32.80;;;13.55;;
45684;SDS011;46836;48.388;16.210;2022-12-29T09:21:09;25.63;;;13.77;;
45684;SDS011;46836;48.388;16.210;2022-12-29T09:23:37;22.77;;;12.93;;
45684;SDS011;46836;48.388;16.210;2022-12-29T09:26:04;21.13;;;12.50;;
45684;SDS011;46836;48.388;16.210;2022-12-29T09:28:31;22.63;;;13.60;;
45684;SDS011;46836;48.388;16.210;2022-12-29T09:30:59;21.75;;;13.10;;
45684;SDS011;46836;48.388;16.210;2022-12-29T09:33:26;23.85;;;14.05;;
45684;SDS011;46836;48.388;16.210;2022-12-29T09:35:55;21.38;;;12.00;;
45684;SDS011;46836;48.388;16.210;2022-12-29T09:38:24;24.08;;;13.85;;
45684;SDS011;46836;48.388;16.210;2022-12-29T09:40:57;26.27;;;13.77;;
45684;SDS011;46836;48.388;16.210;2022-12-29T09:43:53;25.83;;;13.27;;
45684;SDS011;46836;48.388;16.210;2022-12-29T09:46:47;24.33;;;13.32;;
45684;SDS011;46836;48.388;16.210;2022-12-29T09:52:18;25.90;;;14.10;;
45684;SDS011;46836;48.388;16.210;2022-12-29T09:57:31;21.20;;;11.80;;
45684;SDS011;46836;48.388;16.210;2022-12-29T10:00:15;25.73;;;13.93;;
45684;SDS011;46836;48.388;16.210;2022-12-29T10:05:26;21.70;;;12.70;;
45684;SDS011;46836;48.388;16.210;2022-12-29T10:14:00;22.25;;;13.10;;
45684;SDS011;46836;48.388;16.210;2022-12-29T10:19:35;20.23;;;11.10;;
45684;SDS011;46836;48.388;16.210;2022-12-29T10:22:18;20.75;;;12.57;;
45684;SDS011;46836;48.388;16.210;2022-12-29T10:25:12;20.83;;;11.98;;
45684;SDS011;46836;48.388;16.210;2022-12-29T10:27:53;22.33;;;11.90;;
45684;SDS011;46836;48.388;16.210;2022-12-29T10:30:24;24.00;;;14.00;;
45684;SDS011;46836;48.388;16.210;2022-12-29T10:32:56;26.25;;;14.68;;
45684;SDS011;46836;48.388;16.210;2022-12-29T10:35:37;21.63;;;11.77;;
45684;SDS011;46836;48.388;16.210;2022-12-29T10:38:15;20.00;;;12.95;;
45684;SDS011;46836;48.388;16.210;2022-12-29T10:40:58;19.92;;;11.65;;
45684;SDS011;46836;48.388;16.210;2022-12-29T10:43:43;29.98;;;12.80;;
45684;SDS011;46836;48.388;16.210;2022-12-29T10:46:15;22.58;;;12.82;;
45684;SDS011;46836;48.388;16.210;2022-12-29T10:48:55;24.55;;;13.52;;
45684;SDS011;46836;48.388;16.210;2022-12-29T10:53:58;18.58;;;12.30;;
45684;SDS011;46836;48.388;16.210;2022-12-29T10:59:13;22.95;;;13.18;;
45684;SDS011;46836;48.388;16.210;2022-12-29T11:02:04;27.05;;;13.50;;
45684;SDS011;46836;48.388;16.210;2022-12-29T11:07:35;21.00;;;12.38;;
45684;SDS011;46836;48.388;16.210;2022-12-29T11:10:16;24.35;;;13.68;;
45684;SDS011;46836;48.388;16.210;2022-12-29T11:15:49;25.45;;;14.27;;
45684;SDS011;46836;48.388;16.210;2022-12-29T11:18:33;29.67;;;14.20;;
45684;SDS011;46836;48.388;16.210;2022-12-29T11:21:04;28.58;;;13.82;;
45684;SDS011;46836;48.388;16.210;2022-12-29T11:23:37;32.78;;;16.00;;
45684;SDS011;46836;48.388;16.210;2022-12-29T11:26:16;29.15;;;15.85;;
45684;SDS011;46836;48.388;16.210;2022-12-29T11:31:41;28.83;;;15.50;;
45684;SDS011;46836;48.388;16.210;2022-12-29T11:34:16;23.55;;;14.15;;
45684;SDS011;46836;48.388;16.210;2022-12-29T11:37:06;23.90;;;14.32;;
45684;SDS011;46836;48.388;16.210;2022-12-29T11:42:14;27.92;;;16.35;;
45684;SDS011;46836;48.388;16.210;2022-12-29T11:44:45;30.95;;;15.70;;
45684;SDS011;46836;48.388;16.210;2022-12-29T11:47:34;30.55;;;16.48;;
45684;SDS011;46836;48.388;16.210;2022-12-29T11:50:04;30.38;;;15.93;;
45684;SDS011;46836;48.388;16.210;2022-12-29T11:52:35;30.02;;;17.25;;
45684;SDS011;46836;48.388;16.210;2022-12-29T11:55:07;30.90;;;16.30;;
45684;SDS011;46836;48.388;16.210;2022-12-29T11:57:49;28.75;;;15.60;;
45684;SDS011;46836;48.388;16.210;2022-12-29T12:00:19;31.33;;;16.45;;
45684;SDS011;46836;48.388;16.210;2022-12-29T12:08:37;31.17;;;17.33;;
45684;SDS011;46836;48.388;16.210;2022-12-29T12:16:55;32.75;;;17.42;;
45684;SDS011;46836;48.388;16.210;2022-12-29T12:20:00;30.90;;;18.15;;
45684;SDS011;46836;48.388;16.210;2022-12-29T12:22:47;35.25;;;19.08;;
45684;SDS011;46836;48.388;16.210;2022-12-29T12:28:24;34.78;;;18.50;;
45684;SDS011;46836;48.388;16.210;2022-12-29T12:31:02;32.70;;;18.73;;
45684;SDS011;46836;48.388;16.210;2022-12-29T12:33:42;43.67;;;18.20;;
45684;SDS011;46836;48.388;16.210;2022-12-29T12:39:18;40.55;;;20.83;;
45684;SDS011;46836;48.388;16.210;2022-12-29T12:58:22;31.02;;;17.75;;
45684;SDS011;46836;48.388;16.210;2022-12-29T13:01:05;31.30;;;17.38;;
45684;SDS011;46836;48.388;16.210;2022-12-29T13:04:04;39.25;;;17.48;;
45684;SDS011;46836;48.388;16.210;2022-12-29T13:09:32;27.95;;;17.45;;
45684;SDS011;46836;48.388;16.210;2022-12-29T13:12:33;31.92;;;19.00;;
45684;SDS011;46836;48.388;16.210;2022-12-29T13:23:44;29.20;;;17.58;;
45684;SDS011;46836;48.388;16.210;2022-12-29T13:26:59;30.88;;;17.17;;
45684;SDS011;46836;48.388;16.210;2022-12-29T13:32:42;33.70;;;17.20;;
45684;SDS011;46836;48.388;16.210;2022-12-29T13:37:31;36.25;;;17.23;;
45684;SDS011;46836;48.388;16.210;2022-12-29T13:40:02;29.27;;;17.83;;
45684;SDS011;46836;48.388;16.210;2022-12-29T13:42:39;34.30;;;18.33;;
45684;SDS011;46836;48.388;16.210;2022-12-29T13:45:13;27.17;;;16.08;;
45684;SDS011;46836;48.388;16.210;2022-12-29T13:50:48;32.15;;;18.13;;
45684;SDS011;46836;48.388;16.210;2022-12-29T13:53:27;30.00;;;17.23;;
45684;SDS011;46836;48.388;16.210;2022-12-29T14:03:48;31.35;;;17.50;;
45684;SDS011;46836;48.388;16.210;2022-12-29T14:06:22;29.52;;;16.88;;
45684;SDS011;46836;48.388;16.210;2022-12-29T14:08:58;29.60;;;17.08;;
45684;SDS011;46836;48.388;16.210;2022-12-29T14:12:00;26.98;;;16.60;;
45684;SDS011;46836;48.388;16.210;2022-12-29T14:14:28;24.90;;;15.40;;
45684;SDS011;46836;48.388;16.210;2022-12-29T14:17:09;32.05;;;18.15;;
45684;SDS011;46836;48.388;16.210;2022-12-29T14:19:41;31.70;;;18.13;;
45684;SDS011;46836;48.388;16.210;2022-12-29T14:22:11;32.65;;;18.67;;
45684;SDS011;46836;48.388;16.210;2022-12-29T14:24:40;29.50;;;17.40;;
45684;SDS011;46836;48.388;16.210;2022-12-29T14:34:55;35.55;;;18.65;;
45684;SDS011;46836;48.388;16.210;2022-12-29T14:37:28;37.58;;;19.73;;
45684;SDS011;46836;48.388;16.210;2022-12-29T14:42:47;29.08;;;16.63;;
45684;SDS011;46836;48.388;16.210;2022-12-29T14:45:26;30.35;;;17.10;;
45684;SDS011;46836;48.388;16.210;2022-12-29T14:47:55;27.40;;;15.60;;
45684;SDS011;46836;48.388;16.210;2022-12-29T14:50:42;29.73;;;17.48;;
45684;SDS011;46836;48.388;16.210;2022-12-29T14:56:13;25.05;;;15.57;;
45684;SDS011;46836;48.388;16.210;2022-12-29T15:04:15;23.73;;;15.77;;
45684;SDS011;46836;48.388;16.210;2022-12-29T15:06:52;26.83;;;15.82;;
45684;SDS011;46836;48.388;16.210;2022-12-29T15:12:37;30.75;;;16.83;;
45684;SDS011;46836;48.388;16.210;2022-12-29T15:15:46;28.00;;;16.38;;
45684;SDS011;46836;48.388;16.210;2022-12-29T15:18:25;22.10;;;14.90;;
45684;SDS011;46836;48.388;16.210;2022-12-29T15:20:59;27.05;;;14.98;;
45684;SDS011;46836;48.388;16.210;2022-12-29T15:23:39;26.73;;;16.67;;
45684;SDS011;46836;48.388;16.210;2022-12-29T15:26:08;29.65;;;16.75;;
45684;SDS011;46836;48.388;16.210;2022-12-29T15:28:43;30.52;;;16.90;;
45684;SDS011;46836;48.388;16.210;2022-12-29T15:31:19;25.60;;;15.93;;
45684;SDS011;46836;48.388;16.210;2022-12-29T15:34:07;26.13;;;15.48;;
45684;SDS011;46836;48.388;16.210;2022-12-29T15:36:38;30.90;;;16.25;;
45684;SDS011;46836;48.388;16.210;2022-12-29T15:42:50;29.92;;;16.15;;
45684;SDS011;46836;48.388;16.210;2022-12-29T15:45:14;29.38;;;17.15;;
45684;SDS011;46836;48.388;16.210;2022-12-29T15:47:43;27.88;;;16.52;;
45684;SDS011;46836;48.388;16.210;2022-12-29T15:50:27;23.42;;;16.13;;
45684;SDS011;46836;48.388;16.210;2022-12-29T15:52:58;27.63;;;17.02;;
45684;SDS011;46836;48.388;16.210;2022-12-29T15:55:32;25.45;;;16.20;;
45684;SDS011;46836;48.388;16.210;2022-12-29T15:58:02;29.48;;;17.35;;
45684;SDS011;46836;48.388;16.210;2022-12-29T16:00:49;26.55;;;15.82;;
45684;SDS011;46836;48.388;16.210;2022-12-29T16:03:20;30.33;;;16.45;;
45684;SDS011;46836;48.388;16.210;2022-12-29T16:05:53;23.65;;;14.98;;
45684;SDS011;46836;48.388;16.210;2022-12-29T16:08:29;29.52;;;16.70;;
45684;SDS011;46836;48.388;16.210;2022-12-29T16:11:00;24.35;;;15.45;;
45684;SDS011;46836;48.388;16.210;2022-12-29T16:13:31;27.40;;;15.48;;
45684;SDS011;46836;48.388;16.210;2022-12-29T16:16:11;29.13;;;16.58;;
45684;SDS011;46836;48.388;16.210;2022-12-29T16:18:49;27.88;;;15.80;;
45684;SDS011;46836;48.388;16.210;2022-12-29T16:21:25;25.10;;;15.75;;
45684;SDS011;46836;48.388;16.210;2022-12-29T16:23:56;26.67;;;16.75;;
45684;SDS011;46836;48.388;16.210;2022-12-29T16:26:29;29.00;;;16.60;;
45684;SDS011;46836;48.388;16.210;2022-12-29T16:28:57;25.05;;;15.70;;
45684;SDS011;46836;48.388;16.210;2022-12-29T16:31:47;26.55;;;16.20;;
45684;SDS011;46836;48.388;16.210;2022-12-29T16:34:35;24.27;;;15.77;;
45684;SDS011;46836;48.388;16.210;2022-12-29T16:42:46;26.25;;;15.38;;
45684;SDS011;46836;48.388;16.210;2022-12-29T16:47:48;24.08;;;14.90;;
45684;SDS011;46836;48.388;16.210;2022-12-29T16:50:31;27.05;;;15.65;;
45684;SDS011;46836;48.388;16.210;2022-12-29T16:53:03;26.88;;;15.10;;
45684;SDS011;46836;48.388;16.210;2022-12-29T16:55:31;29.23;;;18.05;;
45684;SDS011;46836;48.388;16.210;2022-12-29T16:57:59;23.25;;;13.88;;
45684;SDS011;46836;48.388;16.210;2022-12-29T17:00:27;24.20;;;13.57;;
45684;SDS011;46836;48.388;16.210;2022-12-29T17:02:59;29.10;;;15.63;;
45684;SDS011;46836;48.388;16.210;2022-12-29T17:05:28;26.88;;;14.20;;
45684;SDS011;46836;48.388;16.210;2022-12-29T17:07:55;23.50;;;15.43;;
45684;SDS011;46836;48.388;16.210;2022-12-29T17:10:27;24.40;;;15.10;;
45684;SDS011;46836;48.388;16.210;2022-12-29T17:13:13;23.42;;;14.15;;
45684;SDS011;46836;48.388;16.210;2022-12-29T17:15:40;24.02;;;14.55;;
45684;SDS011;46836;48.388;16.210;2022-12-29T17:18:09;26.60;;;15.02;;
45684;SDS011;46836;48.388;16.210;2022-12-29T17:20:39;23.15;;;13.60;;
45684;SDS011;46836;48.388;16.210;2022-12-29T17:23:13;23.88;;;14.93;;
45684;SDS011;46836;48.388;16.210;2022-12-29T17:25:51;23.40;;;13.40;;
45684;SDS011;46836;48.388;16.210;2022-12-29T17:31:01;24.40;;;15.63;;